Time;durP1;ratioP1;P1;durP2;ratioP2;P2;SDS_P1;SDS_P2;PMS_P1;PMS_P2;Temp;Humidity;BMP_temperature;BMP_pressure;BME280_temperature;BME280_humidity;BME280_pressure;Samples;Min_cycle;Max_cycle;Signal;HPM_P1;HPM_P2
2022/10/01 00:00:12;;;;;;;18.10;10.07;;;;;;;;;;4989694;28;20127;-69
2022/10/01 00:02:37;;;;;;;24.48;11.73;;;;;;;;;;4972680;28;20064;-69
2022/10/01 00:05:05;;;;;;;19.58;10.35;;;;;;;;;;4971326;28;20032;-69
2022/10/01 00:07:39;;;;;;;18.00;10.40;;;;;;;;;;4990104;28;20326;-69
2022/10/01 00:10:06;;;;;;;25.95;12.68;;;;;;;;;;4989360;28;20554;-69
2022/10/01 00:12:31;;;;;;;23.90;11.05;;;;;;;;;;4989009;28;20405;-69
2022/10/01 00:14:56;;;;;;;25.42;11.25;;;;;;;;;;5008936;28;20382;-69
2022/10/01 00:17:22;;;;;;;20.42;11.32;;;;;;;;;;5009045;28;20431;-69
2022/10/01 00:19:48;;;;;;;26.02;12.20;;;;;;;;;;5009163;28;20463;-69
2022/10/01 00:22:13;;;;;;;24.00;11.57;;;;;;;;;;4990928;28;20430;-69
2022/10/01 00:24:39;;;;;;;19.05;9.63;;;;;;;;;;5008745;28;20043;-69
2022/10/01 00:27:05;;;;;;;29.15;13.25;;;;;;;;;;4991304;28;20416;-69
2022/10/01 00:29:30;;;;;;;26.40;10.93;;;;;;;;;;4990975;28;20411;-69
2022/10/01 00:31:56;;;;;;;20.02;10.75;;;;;;;;;;5008714;28;20439;-69
2022/10/01 00:34:22;;;;;;;25.98;12.30;;;;;;;;;;4990726;28;20098;-69
2022/10/01 00:36:48;;;;;;;25.50;11.30;;;;;;;;;;4990886;28;20402;-69
2022/10/01 00:39:13;;;;;;;28.15;12.43;;;;;;;;;;4990788;28;20336;-69
2022/10/01 00:41:39;;;;;;;21.80;12.23;;;;;;;;;;4973907;28;20451;-69
2022/10/01 00:44:31;;;;;;;25.73;12.55;;;;;;;;;;5009509;28;20457;-69
2022/10/01 00:47:02;;;;;;;25.33;12.73;;;;;;;;;;5008578;28;20455;-69
2022/10/01 00:49:28;;;;;;;28.30;14.88;;;;;;;;;;4990396;28;20021;-69
2022/10/01 00:52:01;;;;;;;28.08;13.40;;;;;;;;;;4990815;28;20497;-69
2022/10/01 00:54:32;;;;;;;32.30;15.40;;;;;;;;;;4990372;28;20391;-69
2022/10/01 00:56:59;;;;;;;33.47;13.65;;;;;;;;;;4990270;28;20428;-69
2022/10/01 00:59:25;;;;;;;23.70;13.35;;;;;;;;;;4990339;28;20422;-69
2022/10/01 01:01:51;;;;;;;23.30;12.15;;;;;;;;;;4982044;28;20387;-69
2022/10/01 01:04:16;;;;;;;25.42;11.73;;;;;;;;;;4977364;28;20444;-69
2022/10/01 01:06:52;;;;;;;21.00;11.73;;;;;;;;;;4990126;28;20461;-69
2022/10/01 01:09:19;;;;;;;25.63;13.23;;;;;;;;;;4970807;28;20348;-69
2022/10/01 01:12:02;;;;;;;23.33;12.30;;;;;;;;;;4969920;28;20103;-69
2022/10/01 01:14:30;;;;;;;24.95;11.10;;;;;;;;;;4989330;28;20463;-69
2022/10/01 01:17:00;;;;;;;25.50;13.53;;;;;;;;;;4987935;28;20449;-69
2022/10/01 01:19:43;;;;;;;25.95;14.10;;;;;;;;;;4970497;28;20459;-69
2022/10/01 01:22:10;;;;;;;29.92;15.23;;;;;;;;;;4970725;28;20516;-69
2022/10/01 01:24:47;;;;;;;27.33;12.82;;;;;;;;;;4970389;28;20037;-69
2022/10/01 01:27:24;;;;;;;28.52;13.88;;;;;;;;;;4988104;28;20432;-69
2022/10/01 01:29:59;;;;;;;23.10;11.95;;;;;;;;;;4988274;28;20463;-69
2022/10/01 01:32:32;;;;;;;22.00;12.77;;;;;;;;;;4970497;28;20495;-69
2022/10/01 01:35:01;;;;;;;25.17;13.60;;;;;;;;;;4969801;28;20440;-69
2022/10/01 01:37:30;;;;;;;21.65;11.73;;;;;;;;;;4970835;28;20190;-69
2022/10/01 01:39:58;;;;;;;24.85;12.73;;;;;;;;;;4970336;28;20047;-69
2022/10/01 01:42:29;;;;;;;24.90;12.18;;;;;;;;;;4970015;28;20475;-69
2022/10/01 01:44:58;;;;;;;30.80;14.70;;;;;;;;;;4954296;28;20400;-69
2022/10/01 01:47:24;;;;;;;19.80;12.15;;;;;;;;;;4987789;28;20044;-69
2022/10/01 01:49:51;;;;;;;24.27;12.35;;;;;;;;;;4970383;28;20029;-69
2022/10/01 01:52:16;;;;;;;28.85;12.43;;;;;;;;;;4987719;28;20390;-69
2022/10/01 01:54:46;;;;;;;26.83;13.38;;;;;;;;;;4988372;28;20377;-69
2022/10/01 01:57:12;;;;;;;21.38;10.90;;;;;;;;;;4987614;28;20440;-69
2022/10/01 01:59:38;;;;;;;23.88;13.95;;;;;;;;;;4987855;28;20479;-69
2022/10/01 02:02:07;;;;;;;24.23;12.73;;;;;;;;;;4987567;28;20346;-69
2022/10/01 02:04:32;;;;;;;28.35;14.40;;;;;;;;;;4970012;28;20317;-69
2022/10/01 02:07:00;;;;;;;26.00;13.07;;;;;;;;;;4987652;28;20033;-70
2022/10/01 02:09:31;;;;;;;25.50;13.10;;;;;;;;;;4987689;28;20470;-69
2022/10/01 02:12:06;;;;;;;22.45;11.57;;;;;;;;;;4974506;28;20068;-69
2022/10/01 02:14:38;;;;;;;28.13;12.90;;;;;;;;;;4968543;28;20372;-69
2022/10/01 02:17:15;;;;;;;26.65;14.27;;;;;;;;;;4950095;28;20489;-69
2022/10/01 02:19:54;;;;;;;22.88;12.60;;;;;;;;;;4967917;28;20440;-69
2022/10/01 02:22:25;;;;;;;30.10;14.88;;;;;;;;;;4950378;28;20053;-69
2022/10/01 02:24:56;;;;;;;29.80;14.85;;;;;;;;;;4950027;28;20524;-69
2022/10/01 02:27:28;;;;;;;25.77;13.57;;;;;;;;;;4950789;28;20376;-69
2022/10/01 02:29:56;;;;;;;32.65;13.27;;;;;;;;;;4954160;28;20353;-69
2022/10/01 02:32:22;;;;;;;28.00;12.77;;;;;;;;;;4953740;28;20460;-69
2022/10/01 02:34:49;;;;;;;27.17;12.93;;;;;;;;;;4971328;28;20025;-69
2022/10/01 02:37:16;;;;;;;24.67;13.48;;;;;;;;;;4953593;28;20432;-69
2022/10/01 02:39:42;;;;;;;22.67;11.88;;;;;;;;;;4954705;28;20021;-69
2022/10/01 02:42:09;;;;;;;23.17;13.10;;;;;;;;;;4971390;28;20100;-69
2022/10/01 02:44:37;;;;;;;23.63;12.68;;;;;;;;;;4953559;28;20463;-69
2022/10/01 02:47:13;;;;;;;23.30;12.95;;;;;;;;;;4954602;28;20372;-69
2022/10/01 02:49:40;;;;;;;26.35;11.90;;;;;;;;;;4971198;28;20507;-69
2022/10/01 02:52:30;;;;;;;28.35;13.07;;;;;;;;;;4953439;28;20436;-69
2022/10/01 02:55:13;;;;;;;26.08;13.85;;;;;;;;;;4972696;28;20502;-69
2022/10/01 02:57:39;;;;;;;24.50;13.02;;;;;;;;;;4953258;28;20029;-69
2022/10/01 03:00:08;;;;;;;21.55;12.85;;;;;;;;;;4971504;28;20034;-69
2022/10/01 03:02:33;;;;;;;26.33;13.65;;;;;;;;;;4970795;28;20322;-69
2022/10/01 03:04:59;;;;;;;23.33;12.45;;;;;;;;;;4971116;28;20376;-69
2022/10/01 03:07:25;;;;;;;29.40;13.15;;;;;;;;;;4971004;28;20502;-69
2022/10/01 03:09:51;;;;;;;23.42;12.52;;;;;;;;;;4971385;28;20676;-69
2022/10/01 03:12:17;;;;;;;24.92;12.13;;;;;;;;;;4968074;28;20451;-69
2022/10/01 03:14:45;;;;;;;29.25;15.73;;;;;;;;;;4972817;28;20428;-69
2022/10/01 03:17:12;;;;;;;28.50;15.52;;;;;;;;;;4972582;28;20419;-69
2022/10/01 03:19:37;;;;;;;25.52;12.90;;;;;;;;;;4972451;28;20461;-69
2022/10/01 03:22:03;;;;;;;23.23;12.43;;;;;;;;;;4990323;28;20435;-69
2022/10/01 03:24:28;;;;;;;23.27;11.40;;;;;;;;;;4972245;28;20052;-69
2022/10/01 03:26:57;;;;;;;25.05;12.88;;;;;;;;;;4990518;28;20577;-69
2022/10/01 03:29:23;;;;;;;24.08;12.75;;;;;;;;;;4972271;28;20456;-69
2022/10/01 03:31:49;;;;;;;25.50;13.75;;;;;;;;;;4971983;28;20344;-69
2022/10/01 03:34:14;;;;;;;30.67;12.15;;;;;;;;;;4990062;28;20339;-69
2022/10/01 03:36:39;;;;;;;26.42;13.32;;;;;;;;;;4990364;28;20025;-69
2022/10/01 03:39:05;;;;;;;27.75;13.38;;;;;;;;;;4989315;28;20462;-69
2022/10/01 03:41:30;;;;;;;27.60;13.40;;;;;;;;;;4990573;28;20040;-69
2022/10/01 03:43:55;;;;;;;30.40;14.90;;;;;;;;;;4989802;28;20041;-69
2022/10/01 03:46:21;;;;;;;27.27;14.73;;;;;;;;;;4971981;28;20470;-69
2022/10/01 03:48:48;;;;;;;23.52;13.13;;;;;;;;;;4991888;28;20033;-69
2022/10/01 03:51:13;;;;;;;27.90;14.52;;;;;;;;;;4971879;28;20112;-69
2022/10/01 03:53:39;;;;;;;27.80;14.20;;;;;;;;;;4972257;28;20436;-69
2022/10/01 03:56:04;;;;;;;31.15;15.35;;;;;;;;;;4971879;28;20471;-69
2022/10/01 03:58:30;;;;;;;27.77;14.48;;;;;;;;;;4990392;28;20384;-69
2022/10/01 04:00:55;;;;;;;24.15;13.60;;;;;;;;;;4989618;28;20436;-69
2022/10/01 04:03:21;;;;;;;29.80;14.18;;;;;;;;;;4989643;28;20317;-69
2022/10/01 04:05:46;;;;;;;24.02;12.43;;;;;;;;;;4989480;28;20427;-69
2022/10/01 04:08:12;;;;;;;27.25;12.80;;;;;;;;;;4971571;28;20466;-69
2022/10/01 04:10:38;;;;;;;22.38;12.63;;;;;;;;;;4969228;28;20375;-69
2022/10/01 04:13:04;;;;;;;25.48;13.00;;;;;;;;;;4952374;28;20372;-69
2022/10/01 04:15:30;;;;;;;31.60;14.60;;;;;;;;;;4951758;28;20456;-69
2022/10/01 04:17:56;;;;;;;25.77;14.25;;;;;;;;;;4969399;28;20452;-69
2022/10/01 04:20:22;;;;;;;29.40;15.32;;;;;;;;;;4969489;28;20456;-69
2022/10/01 04:22:47;;;;;;;28.27;13.25;;;;;;;;;;4951654;28;20460;-69
2022/10/01 04:25:13;;;;;;;23.60;13.13;;;;;;;;;;4970386;28;20507;-69
2022/10/01 04:27:56;;;;;;;25.92;12.93;;;;;;;;;;4952096;28;20500;-69
2022/10/01 04:30:21;;;;;;;22.98;13.02;;;;;;;;;;4969902;28;20376;-69
2022/10/01 04:32:47;;;;;;;21.65;11.68;;;;;;;;;;4969503;28;20451;-69
2022/10/01 04:35:13;;;;;;;20.27;11.65;;;;;;;;;;4969280;28;20459;-69
2022/10/01 04:37:38;;;;;;;23.70;11.98;;;;;;;;;;4970715;28;20364;-69
2022/10/01 04:40:04;;;;;;;25.80;12.43;;;;;;;;;;4970823;28;20422;-69
2022/10/01 04:42:30;;;;;;;26.02;12.82;;;;;;;;;;4951129;28;20318;-69
2022/10/01 04:44:57;;;;;;;23.98;12.43;;;;;;;;;;4951788;28;20490;-69
2022/10/01 04:47:23;;;;;;;22.17;11.98;;;;;;;;;;4970144;28;20349;-69
2022/10/01 04:49:48;;;;;;;19.83;10.90;;;;;;;;;;4969206;28;20022;-69
2022/10/01 04:52:13;;;;;;;26.85;12.70;;;;;;;;;;4970492;28;20413;-69
2022/10/01 04:54:39;;;;;;;20.67;11.30;;;;;;;;;;4970331;28;20338;-69
2022/10/01 04:57:04;;;;;;;26.02;12.77;;;;;;;;;;4968948;28;20452;-69
2022/10/01 04:59:30;;;;;;;23.15;11.68;;;;;;;;;;4968853;28;20459;-69
2022/10/01 05:01:56;;;;;;;20.27;10.45;;;;;;;;;;4968790;28;20444;-69
2022/10/01 05:04:21;;;;;;;21.90;11.13;;;;;;;;;;4969278;28;20480;-69
2022/10/01 05:06:46;;;;;;;26.02;12.07;;;;;;;;;;4968672;28;20555;-69
2022/10/01 05:09:12;;;;;;;24.75;11.73;;;;;;;;;;4968558;28;20537;-69
2022/10/01 05:11:37;;;;;;;27.20;12.63;;;;;;;;;;4968487;28;20434;-69
2022/10/01 05:14:03;;;;;;;22.10;11.60;;;;;;;;;;4968432;28;20363;-69
2022/10/01 05:16:29;;;;;;;23.58;12.07;;;;;;;;;;4969083;28;20029;-69
2022/10/01 05:18:54;;;;;;;22.10;10.93;;;;;;;;;;4970591;28;20305;-69
2022/10/01 05:21:19;;;;;;;22.05;11.35;;;;;;;;;;4969088;28;20320;-69
2022/10/01 05:23:45;;;;;;;20.30;10.55;;;;;;;;;;4968410;28;20432;-69
2022/10/01 05:26:10;;;;;;;22.08;12.07;;;;;;;;;;4950599;28;20044;-69
2022/10/01 05:28:36;;;;;;;26.52;12.48;;;;;;;;;;4968761;28;20052;-69
2022/10/01 05:31:02;;;;;;;23.55;12.38;;;;;;;;;;4968655;28;20360;-69
2022/10/01 05:33:29;;;;;;;25.15;12.32;;;;;;;;;;4968262;28;20095;-69
2022/10/01 05:35:55;;;;;;;26.40;13.73;;;;;;;;;;4950501;28;20473;-69
2022/10/01 05:38:21;;;;;;;21.73;11.65;;;;;;;;;;4968930;28;20456;-69
2022/10/01 05:40:46;;;;;;;27.40;12.55;;;;;;;;;;4968239;28;20401;-69
2022/10/01 05:43:12;;;;;;;24.15;13.23;;;;;;;;;;4968222;28;20511;-70
2022/10/01 05:45:37;;;;;;;22.55;10.75;;;;;;;;;;4968250;28;20388;-69
2022/10/01 05:48:04;;;;;;;27.45;13.75;;;;;;;;;;4950426;28;20479;-69
2022/10/01 05:50:32;;;;;;;29.77;14.98;;;;;;;;;;4968230;28;20441;-69
2022/10/01 05:52:58;;;;;;;21.98;12.27;;;;;;;;;;4950834;28;20444;-69
2022/10/01 05:55:24;;;;;;;22.65;12.10;;;;;;;;;;4950284;28;20463;-69
2022/10/01 05:57:57;;;;;;;27.42;12.85;;;;;;;;;;4968073;28;20440;-69
2022/10/01 06:00:26;;;;;;;29.33;14.20;;;;;;;;;;4968190;28;20436;-69
2022/10/01 06:02:52;;;;;;;24.85;12.10;;;;;;;;;;4954218;28;20388;-69
2022/10/01 06:05:18;;;;;;;33.75;13.48;;;;;;;;;;4973026;28;20399;-69
2022/10/01 06:07:43;;;;;;;26.23;11.52;;;;;;;;;;4972273;28;20399;-69
2022/10/01 06:10:09;;;;;;;26.67;13.45;;;;;;;;;;4972583;28;20053;-69
2022/10/01 06:12:34;;;;;;;26.02;11.68;;;;;;;;;;4971979;28;20400;-69
2022/10/01 06:14:59;;;;;;;24.58;13.10;;;;;;;;;;4971977;28;20415;-69
2022/10/01 06:17:25;;;;;;;27.90;12.07;;;;;;;;;;4954075;28;20455;-69
2022/10/01 06:19:50;;;;;;;30.45;12.77;;;;;;;;;;4972884;28;20463;-69
2022/10/01 06:22:16;;;;;;;25.05;12.57;;;;;;;;;;4971901;28;20112;-69
2022/10/01 06:24:41;;;;;;;24.52;11.30;;;;;;;;;;4973465;28;20371;-69
2022/10/01 06:27:07;;;;;;;25.80;13.73;;;;;;;;;;4971741;28;20471;-69
2022/10/01 06:29:32;;;;;;;25.55;12.75;;;;;;;;;;4971697;28;20048;-69
2022/10/01 06:31:57;;;;;;;34.22;14.63;;;;;;;;;;4973302;28;20416;-69
2022/10/01 06:34:23;;;;;;;21.08;11.25;;;;;;;;;;4953849;28;20124;-69
2022/10/01 06:36:48;;;;;;;26.77;12.52;;;;;;;;;;4971515;28;20317;-69
2022/10/01 06:39:14;;;;;;;22.85;11.63;;;;;;;;;;4972609;28;20286;-69
2022/10/01 06:41:42;;;;;;;27.58;12.05;;;;;;;;;;4971705;28;20033;-69
2022/10/01 06:44:08;;;;;;;21.27;11.25;;;;;;;;;;4973104;28;20385;-69
2022/10/01 06:46:34;;;;;;;25.63;13.05;;;;;;;;;;4971240;28;20116;-69
2022/10/01 06:48:59;;;;;;;22.70;11.38;;;;;;;;;;4953464;28;20423;-69
2022/10/01 06:54:09;;;;;;;23.65;12.43;;;;;;;;;;4971208;28;20060;-69
2022/10/01 06:56:35;;;;;;;28.55;13.48;;;;;;;;;;4971466;28;20503;-69
2022/10/01 06:59:01;;;;;;;22.05;11.50;;;;;;;;;;4971666;28;20392;-69
2022/10/01 07:01:27;;;;;;;26.48;13.18;;;;;;;;;;4971059;28;20479;-69
2022/10/01 07:03:53;;;;;;;25.17;12.13;;;;;;;;;;4970895;28;20550;-69
2022/10/01 07:06:18;;;;;;;24.02;13.32;;;;;;;;;;4953940;28;20448;-69
2022/10/01 07:08:47;;;;;;;28.52;13.25;;;;;;;;;;4971022;28;20449;-69
2022/10/01 07:11:13;;;;;;;23.25;12.10;;;;;;;;;;4970847;28;20080;-69
2022/10/01 07:13:38;;;;;;;21.23;11.07;;;;;;;;;;4969767;28;20169;-69
2022/10/01 07:16:04;;;;;;;21.42;11.45;;;;;;;;;;4971701;28;20524;-69
2022/10/01 07:18:29;;;;;;;22.50;11.80;;;;;;;;;;4970702;28;20487;-69
2022/10/01 07:20:57;;;;;;;24.15;12.35;;;;;;;;;;4970786;28;20349;-69
2022/10/01 07:23:25;;;;;;;30.80;13.85;;;;;;;;;;4970558;28;20026;-69
2022/10/01 07:25:51;;;;;;;24.93;13.80;;;;;;;;;;4970415;28;20116;-69
2022/10/01 07:28:19;;;;;;;31.67;13.68;;;;;;;;;;4970550;28;20432;-69
2022/10/01 07:30:57;;;;;;;22.45;10.90;;;;;;;;;;4970528;28;20356;-69
2022/10/01 07:33:23;;;;;;;29.20;11.43;;;;;;;;;;4970531;28;20432;-69
2022/10/01 07:35:48;;;;;;;27.63;12.55;;;;;;;;;;4952796;28;20416;-69
2022/10/01 07:38:14;;;;;;;23.70;12.13;;;;;;;;;;4970352;28;20313;-69
2022/10/01 07:40:39;;;;;;;22.60;11.57;;;;;;;;;;4970380;28;20433;-69
2022/10/01 07:43:04;;;;;;;24.00;11.20;;;;;;;;;;4970118;28;20367;-69
2022/10/01 07:45:30;;;;;;;21.45;10.68;;;;;;;;;;4970214;28;20535;-69
2022/10/01 07:47:57;;;;;;;21.95;11.15;;;;;;;;;;4970298;28;20030;-69
2022/10/01 07:50:24;;;;;;;24.00;10.82;;;;;;;;;;4952619;28;20454;-69
2022/10/01 07:52:51;;;;;;;22.10;10.52;;;;;;;;;;4970088;28;20372;-69
2022/10/01 07:55:17;;;;;;;21.15;10.73;;;;;;;;;;4952261;28;20355;-69
2022/10/01 07:57:42;;;;;;;18.88;10.63;;;;;;;;;;4970847;28;20380;-69
2022/10/01 08:00:08;;;;;;;21.67;10.48;;;;;;;;;;4970038;28;20053;-69
2022/10/01 08:02:34;;;;;;;18.13;10.55;;;;;;;;;;4970250;28;20033;-69
2022/10/01 08:05:19;;;;;;;17.88;9.45;;;;;;;;;;4952102;28;20539;-69
2022/10/01 08:07:45;;;;;;;17.90;9.43;;;;;;;;;;4969679;28;20436;-69
2022/10/01 08:10:11;;;;;;;16.50;10.23;;;;;;;;;;4969625;28;20455;-69
2022/10/01 08:12:36;;;;;;;24.58;13.13;;;;;;;;;;4969989;28;20480;-69
2022/10/01 08:15:02;;;;;;;24.02;11.48;;;;;;;;;;4971750;28;20029;-69
2022/10/01 08:17:27;;;;;;;16.70;9.98;;;;;;;;;;4969604;28;20096;-69
2022/10/01 08:19:52;;;;;;;15.77;8.25;;;;;;;;;;4969431;28;20060;-69
2022/10/01 08:22:18;;;;;;;19.45;9.85;;;;;;;;;;4970926;28;20030;-69
2022/10/01 08:24:43;;;;;;;22.58;9.98;;;;;;;;;;4969200;28;20348;-69
2022/10/01 08:27:08;;;;;;;21.60;9.90;;;;;;;;;;4969449;28;20344;-69
2022/10/01 08:29:34;;;;;;;17.98;9.90;;;;;;;;;;4969388;28;20387;-69
2022/10/01 08:31:59;;;;;;;18.80;9.98;;;;;;;;;;4969876;28;20411;-69
2022/10/01 08:34:24;;;;;;;15.65;9.60;;;;;;;;;;4970279;28;20374;-69
2022/10/01 08:36:50;;;;;;;18.67;9.48;;;;;;;;;;4969273;28;20428;-69
2022/10/01 08:39:16;;;;;;;18.25;9.07;;;;;;;;;;4952157;28;20292;-69
2022/10/01 08:41:51;;;;;;;17.00;9.35;;;;;;;;;;4969156;28;20360;-68
2022/10/01 08:44:24;;;;;;;16.35;8.75;;;;;;;;;;4968966;28;20056;-69
2022/10/01 08:46:50;;;;;;;17.05;8.68;;;;;;;;;;4952596;28;20384;-68
2022/10/01 08:49:24;;;;;;;19.38;8.88;;;;;;;;;;4951394;28;20419;-69
2022/10/01 08:51:58;;;;;;;16.98;9.80;;;;;;;;;;4969127;28;20396;-68
2022/10/01 08:54:35;;;;;;;15.25;7.53;;;;;;;;;;4969219;28;20064;-68
2022/10/01 08:57:02;;;;;;;17.25;9.65;;;;;;;;;;4969382;28;20396;-68
2022/10/01 08:59:42;;;;;;;17.38;9.25;;;;;;;;;;4951077;28;20408;-68
2022/10/01 09:02:18;;;;;;;17.73;9.23;;;;;;;;;;4950904;28;20464;-68
2022/10/01 09:04:43;;;;;;;19.80;9.18;;;;;;;;;;4950845;28;20364;-68
2022/10/01 09:07:25;;;;;;;13.23;7.20;;;;;;;;;;4950805;28;20318;-68
2022/10/01 09:10:19;;;;;;;19.17;9.57;;;;;;;;;;4969425;28;20356;-68
2022/10/01 09:12:49;;;;;;;15.43;7.45;;;;;;;;;;4968493;28;20487;-68
2022/10/01 09:15:34;;;;;;;14.77;7.57;;;;;;;;;;4950713;28;20087;-68
2022/10/01 09:18:39;;;;;;;15.65;7.60;;;;;;;;;;4934378;28;20400;-68
2022/10/01 09:21:12;;;;;;;9.18;5.78;;;;;;;;;;4969361;28;20418;-68
2022/10/01 09:23:47;;;;;;;13.63;7.65;;;;;;;;;;4951564;28;20309;-68
2022/10/01 09:26:13;;;;;;;10.40;6.55;;;;;;;;;;4950562;28;20502;-68
2022/10/01 09:28:40;;;;;;;14.00;6.68;;;;;;;;;;4968441;28;20436;-68
2022/10/01 09:31:05;;;;;;;12.02;6.28;;;;;;;;;;4950715;28;20376;-68
2022/10/01 09:34:09;;;;;;;8.55;5.60;;;;;;;;;;4968243;28;20420;-68
2022/10/01 09:36:58;;;;;;;12.52;6.65;;;;;;;;;;4945976;28;20376;-68
2022/10/01 09:39:28;;;;;;;13.57;7.72;;;;;;;;;;4968258;28;20391;-68
2022/10/01 09:41:53;;;;;;;11.02;6.25;;;;;;;;;;4950496;28;20025;-68
2022/10/01 09:44:26;;;;;;;11.55;5.88;;;;;;;;;;4968214;28;20448;-68
2022/10/01 09:46:52;;;;;;;10.93;5.90;;;;;;;;;;4950345;28;20052;-68
2022/10/01 09:49:38;;;;;;;11.65;5.68;;;;;;;;;;4950881;28;20455;-68
2022/10/01 09:52:09;;;;;;;11.18;5.53;;;;;;;;;;4968593;28;20487;-68
2022/10/01 09:54:59;;;;;;;9.32;6.07;;;;;;;;;;4950150;28;20423;-68
2022/10/01 09:57:30;;;;;;;10.23;5.97;;;;;;;;;;4968240;28;20436;-68
2022/10/01 10:00:07;;;;;;;8.65;5.50;;;;;;;;;;4950551;28;20460;-68
2022/10/01 10:02:40;;;;;;;9.20;5.70;;;;;;;;;;4967949;28;20429;-68
2022/10/01 10:05:13;;;;;;;10.02;6.15;;;;;;;;;;4967875;28;20475;-68
2022/10/01 10:07:41;;;;;;;10.90;5.90;;;;;;;;;;4967979;28;20033;-68
2022/10/01 10:10:10;;;;;;;9.13;5.70;;;;;;;;;;4950743;28;20470;-68
2022/10/01 10:12:36;;;;;;;9.27;5.93;;;;;;;;;;4949969;28;20457;-68
2022/10/01 10:15:12;;;;;;;9.50;5.38;;;;;;;;;;4967735;28;20487;-68
2022/10/01 10:17:41;;;;;;;10.82;5.43;;;;;;;;;;4950131;28;20026;-68
2022/10/01 10:20:10;;;;;;;9.90;5.78;;;;;;;;;;4951232;28;20392;-68
2022/10/01 10:22:36;;;;;;;9.40;5.82;;;;;;;;;;4967858;28;20375;-68
2022/10/01 10:25:12;;;;;;;10.82;5.90;;;;;;;;;;4967508;28;20052;-68
2022/10/01 10:27:54;;;;;;;9.40;5.45;;;;;;;;;;4968225;28;20448;-68
2022/10/01 10:30:20;;;;;;;11.55;6.43;;;;;;;;;;4949965;28;20349;-68
2022/10/01 10:32:46;;;;;;;9.88;5.65;;;;;;;;;;4949861;28;20384;-68
2022/10/01 10:35:16;;;;;;;9.38;5.57;;;;;;;;;;4950161;28;20061;-68
2022/10/01 10:37:53;;;;;;;8.38;5.50;;;;;;;;;;4949845;28;20439;-68
2022/10/01 10:40:40;;;;;;;9.73;5.57;;;;;;;;;;4949907;28;20379;-68
2022/10/01 10:43:18;;;;;;;9.50;5.50;;;;;;;;;;4949758;28;20440;-68
2022/10/01 10:45:45;;;;;;;10.73;5.65;;;;;;;;;;4949570;28;20348;-68
2022/10/01 10:48:14;;;;;;;8.60;5.28;;;;;;;;;;4950580;28;20026;-68
2022/10/01 10:50:43;;;;;;;8.15;4.93;;;;;;;;;;4971042;28;20436;-68
2022/10/01 10:53:24;;;;;;;10.35;5.50;;;;;;;;;;4953253;28;20459;-68
2022/10/01 10:56:00;;;;;;;9.50;5.00;;;;;;;;;;4971128;28;20451;-68
2022/10/01 10:58:28;;;;;;;10.68;5.50;;;;;;;;;;4953440;28;20321;-68
2022/10/01 11:01:04;;;;;;;9.18;5.63;;;;;;;;;;4970894;28;20052;-68
2022/10/01 11:03:31;;;;;;;7.60;4.90;;;;;;;;;;4972021;28;20336;-68
2022/10/01 11:06:13;;;;;;;7.63;4.65;;;;;;;;;;4973205;28;20116;-68
2022/10/01 11:08:39;;;;;;;8.27;5.35;;;;;;;;;;4953123;28;20391;-68
2022/10/01 11:11:33;;;;;;;9.13;5.63;;;;;;;;;;4953940;28;20161;-68
2022/10/01 11:14:23;;;;;;;9.15;5.13;;;;;;;;;;4970960;28;20503;-68
2022/10/01 11:16:53;;;;;;;9.88;5.30;;;;;;;;;;4970869;28;20470;-68
2022/10/01 11:19:46;;;;;;;9.00;4.80;;;;;;;;;;4953253;28;20365;-68
2022/10/01 11:22:44;;;;;;;7.93;4.82;;;;;;;;;;4952674;28;20367;-68
2022/10/01 11:25:40;;;;;;;8.75;5.10;;;;;;;;;;4952950;28;20460;-68
2022/10/01 11:28:16;;;;;;;9.13;4.65;;;;;;;;;;4970376;28;20444;-68
2022/10/01 11:30:44;;;;;;;10.80;5.32;;;;;;;;;;4970557;28;20344;-68
2022/10/01 11:33:20;;;;;;;8.27;4.90;;;;;;;;;;4971678;28;20482;-68
2022/10/01 11:35:48;;;;;;;9.90;5.40;;;;;;;;;;4953527;28;20379;-68
2022/10/01 11:38:48;;;;;;;9.38;5.10;;;;;;;;;;4952705;28;20432;-68
2022/10/01 11:41:24;;;;;;;7.95;4.18;;;;;;;;;;4971038;28;20476;-68
2022/10/01 11:43:53;;;;;;;8.50;5.05;;;;;;;;;;4952806;28;20309;-68
2022/10/01 11:46:32;;;;;;;8.00;4.35;;;;;;;;;;4970043;28;20384;-68
2022/10/01 11:49:34;;;;;;;9.52;5.07;;;;;;;;;;4970369;28;20095;-68
2022/10/01 11:52:12;;;;;;;8.18;4.80;;;;;;;;;;4970129;28;20348;-68
2022/10/01 11:58:49;;;;;;;9.85;4.97;;;;;;;;;;4952168;28;20318;-68
2022/10/01 12:00:36;;;;;;;7.22;4.32;;;;;;;;;;4954560;28;20404;-71
2022/10/01 12:03:04;;;;;;;14.82;4.88;;;;;;;;;;4970096;28;20476;-68
2022/10/01 12:05:30;;;;;;;9.73;4.88;;;;;;;;;;4952414;28;20425;-68
2022/10/01 12:08:02;;;;;;;7.40;4.80;;;;;;;;;;4969687;28;20511;-68
2022/10/01 12:10:37;;;;;;;7.68;5.05;;;;;;;;;;4971548;28;20520;-68
2022/10/01 12:13:14;;;;;;;8.13;4.57;;;;;;;;;;4970942;28;20451;-67
2022/10/01 12:15:52;;;;;;;8.50;4.40;;;;;;;;;;4969510;28;20095;-68
2022/10/01 12:18:22;;;;;;;8.18;4.82;;;;;;;;;;4951823;28;20381;-68
2022/10/01 12:20:57;;;;;;;9.68;4.60;;;;;;;;;;4968045;28;20464;-67
2022/10/01 12:23:30;;;;;;;9.48;4.30;;;;;;;;;;4935558;28;20388;-68
2022/10/01 12:25:58;;;;;;;7.07;4.55;;;;;;;;;;4951782;28;20348;-68
2022/10/01 12:28:33;;;;;;;7.78;4.93;;;;;;;;;;4969317;28;20118;-68
2022/10/01 12:31:27;;;;;;;6.25;4.38;;;;;;;;;;4969379;28;20445;-68
2022/10/01 12:34:08;;;;;;;7.38;4.43;;;;;;;;;;4943310;28;20495;-68
2022/10/01 12:37:03;;;;;;;7.22;4.35;;;;;;;;;;4935872;28;20432;-68
2022/10/01 12:39:37;;;;;;;6.93;4.30;;;;;;;;;;4969097;28;20360;-68
2022/10/01 12:42:30;;;;;;;7.68;4.53;;;;;;;;;;4969245;28;20403;-68
2022/10/01 12:45:23;;;;;;;7.43;4.70;;;;;;;;;;4951427;28;20368;-68
2022/10/01 12:48:24;;;;;;;6.80;4.03;;;;;;;;;;4969065;28;20507;-68
2022/10/01 12:51:21;;;;;;;8.27;4.53;;;;;;;;;;4936370;28;20510;-68
2022/10/01 12:54:00;;;;;;;7.18;4.07;;;;;;;;;;4969064;28;20371;-68
2022/10/01 12:57:07;;;;;;;7.80;4.95;;;;;;;;;;4951649;28;20360;-68
2022/10/01 13:00:06;;;;;;;7.15;4.50;;;;;;;;;;4951882;28;20407;-68
2022/10/01 13:02:58;;;;;;;7.18;4.32;;;;;;;;;;4951313;28;20380;-68
2022/10/01 13:05:42;;;;;;;7.30;4.30;;;;;;;;;;4968711;28;20444;-68
2022/10/01 13:08:16;;;;;;;8.90;4.45;;;;;;;;;;4968684;28;20037;-68
2022/10/01 13:10:58;;;;;;;7.95;3.75;;;;;;;;;;4968040;28;20344;-68
2022/10/01 13:13:31;;;;;;;7.88;4.32;;;;;;;;;;4968583;28;20464;-68
2022/10/01 13:16:35;;;;;;;5.40;3.85;;;;;;;;;;4969400;28;20444;-68
2022/10/01 13:19:18;;;;;;;6.15;3.88;;;;;;;;;;4968689;28;20025;-68
2022/10/01 13:21:59;;;;;;;7.50;3.63;;;;;;;;;;4950486;28;20029;-68
2022/10/01 13:24:41;;;;;;;5.60;3.60;;;;;;;;;;4950556;28;20021;-68
2022/10/01 13:27:57;;;;;;;6.32;3.60;;;;;;;;;;4951214;28;20188;-67
2022/10/01 13:30:25;;;;;;;5.10;3.28;;;;;;;;;;4889133;29;20354;-67
2022/10/01 13:32:54;;;;;;;6.82;4.10;;;;;;;;;;4888764;29;20035;-67
2022/10/01 13:35:27;;;;;;;;;;;;;;;;;;4921134;28;20475;-68
2022/10/01 13:37:53;;;;;;;6.07;3.35;;;;;;;;;;4950374;28;20510;-68
2022/10/01 13:40:23;;;;;;;5.80;3.75;;;;;;;;;;4950366;28;20464;-67
2022/10/01 13:42:50;;;;;;;7.63;3.78;;;;;;;;;;4968154;28;20514;-68
2022/10/01 13:45:40;;;;;;;5.38;3.70;;;;;;;;;;4968417;28;20200;-68
2022/10/01 13:48:28;;;;;;;5.60;4.05;;;;;;;;;;4968028;28;20029;-67
2022/10/01 13:51:11;;;;;;;6.38;4.18;;;;;;;;;;4969010;28;20447;-68
2022/10/01 13:53:46;;;;;;;6.32;3.58;;;;;;;;;;4950287;28;20493;-67
2022/10/01 13:56:14;;;;;;;5.90;3.47;;;;;;;;;;4934760;28;20321;-68
2022/10/01 13:58:44;;;;;;;6.28;3.63;;;;;;;;;;4966069;28;20499;-67
2022/10/01 14:01:16;;;;;;;6.25;3.80;;;;;;;;;;4950398;28;20367;-68
2022/10/01 14:03:50;;;;;;;6.75;3.65;;;;;;;;;;4968128;28;20511;-67
2022/10/01 14:06:58;;;;;;;6.80;3.83;;;;;;;;;;4967860;28;20448;-68
2022/10/01 14:09:35;;;;;;;8.07;3.80;;;;;;;;;;4967855;28;20417;-67
2022/10/01 14:17:42;;;;;;;5.95;3.20;;;;;;;;;;4969050;28;20463;-67
2022/10/01 14:20:08;;;;;;;7.20;3.75;;;;;;;;;;4967602;28;20176;-68
2022/10/01 14:22:58;;;;;;;5.10;3.60;;;;;;;;;;4951271;28;20846;-68
2022/10/01 14:26:11;;;;;;;4.10;2.70;;;;;;;;;;4973226;28;20105;-67
2022/10/01 14:28:46;;;;;;;6.18;3.35;;;;;;;;;;4873204;29;20479;-67
2022/10/01 14:31:39;;;;;;;4.85;3.97;;;;;;;;;;4957424;28;20602;-68
2022/10/01 14:34:14;;;;;;;5.03;3.50;;;;;;;;;;4973910;28;21211;-68
2022/10/01 14:36:44;;;;;;;5.25;3.47;;;;;;;;;;4953718;28;20502;-68
2022/10/01 14:39:26;;;;;;;5.47;3.70;;;;;;;;;;4972879;28;20431;-68
2022/10/01 14:41:53;;;;;;;13.65;4.15;;;;;;;;;;4953700;28;20433;-68
2022/10/01 14:44:25;;;;;;;7.20;4.28;;;;;;;;;;4971275;28;20021;-67
2022/10/01 14:46:53;;;;;;;6.97;4.03;;;;;;;;;;4972558;28;20313;-68
2022/10/01 14:49:20;;;;;;;5.88;4.03;;;;;;;;;;4971345;28;20451;-68
2022/10/01 14:51:54;;;;;;;6.15;4.25;;;;;;;;;;4954664;28;20380;-67
2022/10/01 14:54:20;;;;;;;7.18;4.07;;;;;;;;;;4972073;28;20460;-68
2022/10/01 14:56:46;;;;;;;6.40;4.25;;;;;;;;;;4953507;28;20479;-67
2022/10/01 14:59:33;;;;;;;12.75;4.00;;;;;;;;;;4971077;28;20427;-67
2022/10/01 15:02:01;;;;;;;7.35;4.35;;;;;;;;;;4970984;28;20064;-67